createdAt,value
2023-12-18T00:01:47.623Z,5
2023-12-18T00:03:50.875Z,5
2023-12-18T00:05:49.692Z,5
2023-12-18T00:07:50.685Z,5
2023-12-18T00:09:51.833Z,5
2023-12-18T00:11:52.608Z,5
2023-12-18T00:13:54.396Z,5
2023-12-18T00:15:54.799Z,5
2023-12-18T00:17:55.914Z,5
2023-12-18T00:19:56.690Z,5
2023-12-18T00:21:57.753Z,5
2023-12-18T00:23:58.670Z,5
2023-12-18T00:25:59.757Z,5
2023-12-18T00:28:00.755Z,5
2023-12-18T00:30:01.838Z,5
2023-12-18T00:32:02.714Z,5
2023-12-18T00:34:03.989Z,5
2023-12-18T00:36:04.703Z,5
2023-12-18T00:38:05.905Z,5
2023-12-18T00:40:06.674Z,5
2023-12-18T00:42:07.752Z,5
2023-12-18T00:44:08.633Z,5
2023-12-18T00:46:09.766Z,5
2023-12-18T00:48:10.886Z,5
2023-12-18T00:50:11.960Z,5
2023-12-18T00:52:12.685Z,5
2023-12-18T00:54:13.751Z,5
2023-12-18T00:56:14.654Z,5
2023-12-18T00:58:15.648Z,5
2023-12-18T01:00:16.859Z,5
2023-12-18T01:02:17.657Z,5
2023-12-18T01:04:19.065Z,5
2023-12-18T01:06:19.791Z,5
2023-12-18T01:08:20.795Z,5
2023-12-18T01:10:21.777Z,5
2023-12-18T01:12:22.833Z,5
2023-12-18T01:14:23.629Z,5
2023-12-18T01:16:24.686Z,5
2023-12-18T01:18:26.065Z,5
2023-12-18T01:22:27.779Z,5
2023-12-18T01:24:28.625Z,5
2023-12-18T01:26:29.803Z,5
2023-12-18T01:28:30.647Z,6
2023-12-18T01:30:31.941Z,6
2023-12-18T01:32:32.729Z,6
2023-12-18T01:34:34.062Z,6
2023-12-18T01:36:34.656Z,6
2023-12-18T01:38:35.685Z,6
2023-12-18T01:40:36.710Z,6
2023-12-18T01:42:37.795Z,6
2023-12-18T01:44:38.617Z,6
2023-12-18T01:46:39.776Z,5
2023-12-18T01:48:40.987Z,5
2023-12-18T01:50:41.789Z,5
2023-12-18T01:52:42.716Z,5
2023-12-18T01:54:43.838Z,5
2023-12-18T01:56:44.760Z,5
2023-12-18T01:58:45.704Z,5
2023-12-18T02:00:46.795Z,5
2023-12-18T02:02:47.786Z,5
2023-12-18T02:04:48.625Z,5
2023-12-18T02:06:49.703Z,5
2023-12-18T02:08:50.723Z,5
2023-12-18T02:10:51.654Z,5
2023-12-18T02:12:52.666Z,5
2023-12-18T02:14:53.619Z,5
2023-12-18T02:16:54.677Z,5
2023-12-18T02:18:55.865Z,5
2023-12-18T02:20:56.746Z,5
2023-12-18T02:22:57.659Z,5
2023-12-18T02:24:59.110Z,5
2023-12-18T02:26:59.889Z,5
2023-12-18T02:29:00.721Z,5
2023-12-18T02:31:01.914Z,5
2023-12-18T02:33:03.024Z,5
2023-12-18T02:35:04.105Z,5
2023-12-18T02:37:04.657Z,5
2023-12-18T02:39:05.948Z,5
2023-12-18T02:41:06.848Z,5
2023-12-18T02:43:07.738Z,6
2023-12-18T02:45:08.710Z,6
2023-12-18T02:47:09.698Z,6
2023-12-18T02:49:10.907Z,6
2023-12-18T02:51:11.748Z,6
2023-12-18T02:53:12.827Z,6
2023-12-18T02:55:13.689Z,6
2023-12-18T02:57:14.753Z,6
2023-12-18T02:59:15.788Z,6
2023-12-18T03:01:16.826Z,6
2023-12-18T03:03:17.740Z,6
2023-12-18T03:05:18.902Z,6
2023-12-18T03:07:19.689Z,6
2023-12-18T03:09:20.679Z,7
2023-12-18T03:11:21.681Z,7
2023-12-18T03:13:22.844Z,7
2023-12-18T03:15:23.680Z,7
2023-12-18T03:17:24.931Z,7
2023-12-18T03:19:25.727Z,7
2023-12-18T03:21:26.910Z,7
2023-12-18T03:23:27.619Z,7
2023-12-18T03:25:28.783Z,7
2023-12-18T03:27:29.802Z,7
2023-12-18T03:29:30.728Z,7
2023-12-18T03:31:31.706Z,7
2023-12-18T03:33:33.292Z,6
2023-12-18T03:35:33.693Z,6
2023-12-18T03:37:34.847Z,6
2023-12-18T03:39:35.920Z,6
2023-12-18T03:41:36.645Z,6
2023-12-18T03:43:37.777Z,6
2023-12-18T03:47:40.072Z,6
2023-12-18T03:49:40.870Z,6
2023-12-18T03:51:41.774Z,6
2023-12-18T03:53:42.666Z,6
2023-12-18T03:55:43.664Z,5
2023-12-18T03:57:45.436Z,5
2023-12-18T03:59:45.606Z,5
2023-12-18T04:01:46.645Z,5
2023-12-18T04:03:47.826Z,5
2023-12-18T04:05:48.807Z,5
2023-12-18T04:07:49.688Z,5
2023-12-18T04:09:50.838Z,5
2023-12-18T04:11:51.705Z,5
2023-12-18T04:13:52.681Z,5
2023-12-18T04:15:53.654Z,5
2023-12-18T04:17:55.008Z,5
2023-12-18T04:19:55.766Z,5
2023-12-18T04:21:56.772Z,5
2023-12-18T04:23:57.653Z,5
2023-12-18T04:25:58.632Z,5
2023-12-18T04:27:59.698Z,5
2023-12-18T04:30:00.812Z,5
2023-12-18T04:32:01.707Z,5
2023-12-18T04:34:03.132Z,5
2023-12-18T04:36:03.803Z,4
2023-12-18T04:38:04.693Z,4
2023-12-18T04:40:05.642Z,4
2023-12-18T04:42:06.795Z,4
2023-12-18T04:44:07.677Z,4
2023-12-18T04:46:08.676Z,4
2023-12-18T04:48:10.062Z,4
2023-12-18T04:50:10.654Z,4
2023-12-18T04:52:12.166Z,4
2023-12-18T04:54:12.887Z,4
2023-12-18T04:56:13.747Z,4
2023-12-18T04:58:14.642Z,4
2023-12-18T05:00:15.823Z,4
2023-12-18T05:02:16.631Z,4
2023-12-18T05:04:17.899Z,4
2023-12-18T05:06:18.718Z,4
2023-12-18T05:08:19.599Z,4
2023-12-18T05:10:20.654Z,4
2023-12-18T05:12:21.824Z,4
2023-12-18T05:14:22.700Z,4
2023-12-18T05:16:23.629Z,4
2023-12-18T05:18:25.259Z,4
2023-12-18T05:20:25.708Z,4
2023-12-18T05:22:26.778Z,4
2023-12-18T05:24:27.718Z,4
2023-12-18T05:26:28.738Z,4
2023-12-18T05:28:29.647Z,3
2023-12-18T05:30:30.891Z,3
2023-12-18T05:32:31.783Z,3
2023-12-18T05:34:32.835Z,3
2023-12-18T05:36:33.984Z,3
2023-12-18T05:38:34.692Z,3
2023-12-18T05:40:35.636Z,3
2023-12-18T05:42:36.881Z,3
2023-12-18T05:44:37.723Z,3
2023-12-18T05:46:38.700Z,3
2023-12-18T05:48:39.856Z,3
2023-12-18T05:50:40.954Z,3
2023-12-18T05:52:42.180Z,3
2023-12-18T05:54:42.706Z,3
2023-12-18T05:56:43.700Z,3
2023-12-18T05:58:44.717Z,3
2023-12-18T06:00:45.845Z,3
2023-12-18T06:02:47.678Z,3
2023-12-18T06:04:47.882Z,3
2023-12-18T06:06:48.932Z,3
2023-12-18T06:08:49.760Z,3
2023-12-18T06:10:50.690Z,3
2023-12-18T06:12:51.827Z,3
2023-12-18T06:14:52.686Z,3
2023-12-18T06:16:53.665Z,3
2023-12-18T06:18:54.954Z,3
2023-12-18T06:20:55.748Z,3
2023-12-18T06:22:56.658Z,3
2023-12-18T06:24:57.644Z,3
2023-12-18T06:26:58.617Z,3
2023-12-18T06:28:59.934Z,3
2023-12-18T06:31:00.857Z,3
2023-12-18T06:33:01.980Z,3
2023-12-18T06:35:03.005Z,3
2023-12-18T06:37:03.745Z,3
2023-12-18T06:39:05.117Z,3
2023-12-18T06:41:05.714Z,3
2023-12-18T06:43:06.689Z,3
2023-12-18T06:45:07.724Z,3
2023-12-18T06:47:08.684Z,3
2023-12-18T06:49:09.959Z,3
2023-12-18T06:51:10.716Z,3
2023-12-18T06:53:11.802Z,3
2023-12-18T06:55:12.714Z,2
2023-12-18T06:57:13.959Z,2
2023-12-18T06:59:14.863Z,2
2023-12-18T07:01:15.840Z,2
2023-12-18T07:03:16.774Z,2
2023-12-18T07:05:17.839Z,2
2023-12-18T07:07:18.863Z,2
2023-12-18T07:09:19.892Z,2
2023-12-18T07:11:20.936Z,2
2023-12-18T07:13:21.670Z,2
2023-12-18T07:15:22.719Z,2
2023-12-18T07:17:23.752Z,2
2023-12-18T07:19:25.045Z,2
2023-12-18T07:21:25.746Z,2
2023-12-18T07:23:26.984Z,2
2023-12-18T07:25:27.691Z,2
2023-12-18T07:27:28.788Z,2
2023-12-18T07:29:29.724Z,2
2023-12-18T07:31:30.943Z,2
2023-12-18T07:33:31.984Z,2
2023-12-18T07:35:32.904Z,2
2023-12-18T07:37:33.637Z,2
2023-12-18T07:39:34.801Z,2
2023-12-18T07:41:35.680Z,2
2023-12-18T07:43:36.652Z,3
2023-12-18T07:45:37.794Z,3
2023-12-18T07:47:39.003Z,3
2023-12-18T07:49:40.231Z,4
2023-12-18T07:51:40.718Z,4
2023-12-18T07:53:41.902Z,5
2023-12-18T07:55:42.644Z,5
2023-12-18T07:57:44.144Z,6
2023-12-18T07:59:44.711Z,6
2023-12-18T08:01:45.684Z,6
2023-12-18T08:03:46.880Z,7
2023-12-18T08:05:47.640Z,7
2023-12-18T08:07:49.311Z,7
2023-12-18T08:09:49.771Z,8
2023-12-18T08:11:50.697Z,8
2023-12-18T08:13:51.737Z,8
2023-12-18T08:15:52.908Z,8
2023-12-18T08:17:53.901Z,8
2023-12-18T08:19:54.829Z,9
2023-12-18T08:21:56.091Z,9
2023-12-18T08:23:56.690Z,9
2023-12-18T08:25:57.717Z,9
2023-12-18T08:27:59.133Z,9
2023-12-18T08:29:59.660Z,9
2023-12-18T08:32:01.548Z,10
2023-12-18T08:34:02.368Z,10
2023-12-18T08:36:03.040Z,10
2023-12-18T08:38:03.838Z,10
2023-12-18T08:40:04.912Z,10
2023-12-18T08:42:06.105Z,10
2023-12-18T08:44:06.965Z,11
2023-12-18T08:46:07.969Z,11
2023-12-18T08:48:08.812Z,11
2023-12-18T08:50:09.721Z,11
2023-12-18T08:52:10.767Z,11
2023-12-18T08:54:11.877Z,12
2023-12-18T08:56:12.960Z,12
2023-12-18T08:58:13.670Z,12
2023-12-18T09:00:14.832Z,12
2023-12-18T09:02:15.811Z,12
2023-12-18T09:04:17.068Z,12
2023-12-18T09:06:17.767Z,13
2023-12-18T09:08:18.690Z,13
2023-12-18T09:10:19.792Z,13
2023-12-18T09:12:20.762Z,13
2023-12-18T09:14:21.788Z,13
2023-12-18T09:16:22.731Z,13
2023-12-18T09:18:24.068Z,13
2023-12-18T09:20:24.690Z,14
2023-12-18T09:22:25.827Z,14
2023-12-18T09:24:27.374Z,14
2023-12-18T09:26:27.802Z,14
2023-12-18T09:28:28.642Z,14
2023-12-18T09:30:29.849Z,14
2023-12-18T09:32:30.923Z,15
2023-12-18T09:34:31.976Z,15
2023-12-18T09:36:33.000Z,15
2023-12-18T09:38:33.652Z,16
2023-12-18T09:40:34.709Z,17
2023-12-18T09:42:35.752Z,19
2023-12-18T09:44:36.619Z,20
2023-12-18T09:46:37.608Z,21
2023-12-18T09:48:38.770Z,22
2023-12-18T09:50:39.799Z,23
2023-12-18T09:52:41.197Z,24
2023-12-18T09:54:41.919Z,24
2023-12-18T09:56:42.751Z,25
2023-12-18T09:58:43.616Z,25
2023-12-18T10:00:44.968Z,26
2023-12-18T10:02:45.978Z,26
2023-12-18T10:04:46.671Z,26
2023-12-18T10:06:47.628Z,26
2023-12-18T10:08:48.547Z,26
2023-12-18T10:10:49.796Z,26
2023-12-18T10:12:50.698Z,26
2023-12-18T10:14:51.624Z,26
2023-12-18T10:16:52.664Z,27
2023-12-18T10:18:53.786Z,28
2023-12-18T10:20:54.670Z,28
2023-12-18T10:22:55.745Z,27
2023-12-18T10:24:56.746Z,26
2023-12-18T10:26:57.643Z,25
2023-12-18T10:28:58.563Z,24
2023-12-18T10:30:59.869Z,22
2023-12-18T10:33:00.665Z,22
2023-12-18T10:35:01.620Z,22
2023-12-18T10:37:02.690Z,23
2023-12-18T10:39:03.586Z,24
2023-12-18T10:41:04.652Z,25
2023-12-18T10:43:05.583Z,25
2023-12-18T10:45:06.747Z,25
2023-12-18T10:47:07.960Z,25
2023-12-18T10:49:08.955Z,24
2023-12-18T10:51:09.720Z,23
2023-12-18T10:53:10.572Z,22
2023-12-18T10:55:11.873Z,21
2023-12-18T10:57:12.671Z,21
2023-12-18T10:59:13.537Z,20
2023-12-18T11:01:14.754Z,20
2023-12-18T11:03:15.776Z,20
2023-12-18T11:05:16.591Z,19
2023-12-18T11:07:17.963Z,19
2023-12-18T11:09:18.647Z,19
2023-12-18T11:11:19.623Z,19
2023-12-18T11:13:20.548Z,19
2023-12-18T11:15:21.675Z,19
2023-12-18T11:17:22.617Z,19
2023-12-18T11:19:27.748Z,19
2023-12-18T11:21:24.572Z,19
2023-12-18T11:23:25.564Z,19
2023-12-18T11:25:26.601Z,19
2023-12-18T11:27:27.551Z,19
2023-12-18T11:29:28.612Z,19
2023-12-18T11:31:29.735Z,19
2023-12-18T11:33:45.777Z,19
2023-12-18T11:35:31.668Z,20
2023-12-18T11:37:32.598Z,20
2023-12-18T11:39:33.700Z,20
2023-12-18T11:41:34.556Z,20
2023-12-18T11:43:35.537Z,20
2023-12-18T11:45:36.830Z,19
2023-12-18T11:47:37.658Z,19
2023-12-18T11:49:39.267Z,19
2023-12-18T11:51:39.636Z,19
2023-12-18T11:53:40.553Z,19
2023-12-18T11:55:41.543Z,19
2023-12-18T11:57:42.698Z,19
2023-12-18T11:59:43.624Z,19
2023-12-18T12:01:44.628Z,19
2023-12-18T12:05:46.622Z,19
2023-12-18T12:07:48.045Z,19
2023-12-18T12:09:48.583Z,19
2023-12-18T12:11:49.516Z,19
2023-12-18T12:13:50.510Z,19
2023-12-18T12:15:51.636Z,19
2023-12-18T12:17:52.614Z,19
2023-12-18T12:19:53.790Z,19
2023-12-18T12:21:54.609Z,20
2023-12-18T12:23:55.511Z,20
2023-12-18T12:25:56.546Z,20
2023-12-18T12:27:57.777Z,20
2023-12-18T12:29:58.571Z,20
2023-12-18T12:32:13.734Z,20
2023-12-18T12:34:00.832Z,20
2023-12-18T12:36:01.554Z,20
2023-12-18T12:38:02.934Z,19
2023-12-18T12:40:03.627Z,19
2023-12-18T12:42:04.470Z,19
2023-12-18T12:44:05.542Z,19
2023-12-18T12:46:06.545Z,19
2023-12-18T12:48:07.781Z,19
2023-12-18T12:50:08.514Z,19
2023-12-18T12:52:09.552Z,18
2023-12-18T12:54:10.611Z,18
2023-12-18T12:56:12.185Z,18
2023-12-18T12:58:12.413Z,18
2023-12-18T13:00:13.576Z,18
2023-12-18T13:02:14.579Z,18
2023-12-18T13:04:16.778Z,18
2023-12-18T13:06:16.671Z,18
2023-12-18T13:08:17.577Z,18
2023-12-18T13:10:18.516Z,18
2023-12-18T13:12:20.625Z,18
2023-12-18T13:14:20.591Z,18
2023-12-18T13:16:21.430Z,18
2023-12-18T13:18:22.891Z,17
2023-12-18T13:20:29.383Z,17
2023-12-18T13:22:24.448Z,17
2023-12-18T13:24:25.589Z,17
2023-12-18T13:26:26.516Z,17
2023-12-18T13:28:27.475Z,17
2023-12-18T13:30:28.863Z,17
2023-12-18T13:32:29.655Z,17
2023-12-18T13:34:30.581Z,17
2023-12-18T13:36:31.681Z,17
2023-12-18T13:38:32.456Z,17
2023-12-18T13:40:33.552Z,17
2023-12-18T13:42:34.602Z,16
2023-12-18T13:44:35.465Z,16
2023-12-18T13:46:36.468Z,16
2023-12-18T13:48:37.695Z,16
2023-12-18T13:50:38.419Z,16
2023-12-18T13:52:39.537Z,16
2023-12-18T13:54:40.482Z,16
2023-12-18T13:56:41.443Z,16
2023-12-18T13:58:42.454Z,16
2023-12-18T14:00:43.504Z,16
2023-12-18T14:02:44.684Z,16
2023-12-18T14:04:45.458Z,16
2023-12-18T14:06:46.549Z,16
2023-12-18T14:08:47.622Z,16
2023-12-18T14:10:48.424Z,16
2023-12-18T14:12:49.921Z,15
2023-12-18T14:14:50.438Z,15
2023-12-18T14:16:51.582Z,15
2023-12-18T14:18:52.527Z,15
2023-12-18T14:20:53.571Z,15
2023-12-18T14:22:54.509Z,15
2023-12-18T14:24:55.471Z,15
2023-12-18T14:26:56.418Z,15
2023-12-18T14:28:57.480Z,14
2023-12-18T14:30:58.626Z,14
2023-12-18T14:32:59.627Z,14
2023-12-18T14:35:01.177Z,13
2023-12-18T14:37:01.515Z,13
2023-12-18T14:39:02.455Z,12
2023-12-18T14:41:07.397Z,12
2023-12-18T14:43:04.736Z,12
2023-12-18T14:45:05.519Z,11
2023-12-18T14:47:06.475Z,11
2023-12-18T14:49:07.599Z,11
2023-12-18T14:51:08.492Z,10
2023-12-18T14:53:09.409Z,10
2023-12-18T14:55:10.715Z,10
2023-12-18T14:57:11.469Z,10
2023-12-18T14:59:12.559Z,9
2023-12-18T15:01:13.652Z,9
2023-12-18T15:03:15.743Z,9
2023-12-18T15:05:15.372Z,9
2023-12-18T15:07:16.534Z,8
2023-12-18T15:09:17.489Z,8
2023-12-18T15:11:18.369Z,8
2023-12-18T15:13:22.765Z,8
2023-12-18T15:15:20.736Z,8
2023-12-18T15:17:21.428Z,8
2023-12-18T15:19:22.581Z,8
2023-12-18T15:21:23.824Z,8
2023-12-18T15:23:24.409Z,7
2023-12-18T15:25:25.688Z,7
2023-12-18T15:27:26.498Z,7
2023-12-18T15:29:27.438Z,7
2023-12-18T15:31:28.619Z,7
2023-12-18T15:33:30.109Z,7
2023-12-18T15:35:30.553Z,7
2023-12-18T15:37:31.369Z,7
2023-12-18T15:39:32.484Z,7
2023-12-18T15:41:33.521Z,7
2023-12-18T15:43:34.424Z,7
2023-12-18T15:45:35.501Z,6
2023-12-18T15:47:36.709Z,6
2023-12-18T15:49:37.586Z,6
2023-12-18T15:51:38.425Z,6
2023-12-18T15:53:39.429Z,6
2023-12-18T15:55:40.514Z,6
2023-12-18T15:57:41.553Z,6
2023-12-18T15:59:42.522Z,6
2023-12-18T16:01:43.371Z,6
2023-12-18T16:03:44.762Z,6
2023-12-18T16:05:45.419Z,6
2023-12-18T16:07:46.647Z,6
2023-12-18T16:09:47.621Z,6
2023-12-18T16:11:48.635Z,6
2023-12-18T16:13:49.949Z,6
2023-12-18T16:15:50.691Z,6
2023-12-18T16:17:51.617Z,6
2023-12-18T16:19:52.356Z,6
2023-12-18T16:21:53.768Z,6
2023-12-18T16:23:54.542Z,6
2023-12-18T16:25:56.552Z,6
2023-12-18T16:27:56.550Z,6
2023-12-18T16:29:57.345Z,6
2023-12-18T16:31:58.560Z,6
2023-12-18T16:33:59.658Z,6
2023-12-18T16:36:00.654Z,6
2023-12-18T16:38:01.470Z,6
2023-12-18T16:40:02.403Z,6
2023-12-18T16:42:03.372Z,6
2023-12-18T16:44:04.503Z,6
2023-12-18T16:46:05.691Z,6
2023-12-18T16:48:06.690Z,6
2023-12-18T16:50:07.403Z,5
2023-12-18T16:52:08.417Z,5
2023-12-18T16:54:09.469Z,5
2023-12-18T16:56:10.398Z,5
2023-12-18T16:58:11.372Z,6
2023-12-18T17:00:15.149Z,6
2023-12-18T17:02:15.668Z,6
2023-12-18T17:04:14.490Z,6
2023-12-18T17:06:15.524Z,6
2023-12-18T17:08:16.377Z,6
2023-12-18T17:10:17.362Z,6
2023-12-18T17:12:18.534Z,6
2023-12-18T17:14:19.433Z,6
2023-12-18T17:16:20.529Z,6
2023-12-18T17:18:21.821Z,6
2023-12-18T17:20:22.456Z,6
2023-12-18T17:22:23.432Z,6
2023-12-18T17:24:24.540Z,6
2023-12-18T17:26:25.520Z,6
2023-12-18T17:28:26.412Z,6
2023-12-18T17:30:27.469Z,6
2023-12-18T17:32:30.417Z,6
2023-12-18T17:34:29.551Z,6
2023-12-18T17:36:31.721Z,5
2023-12-18T17:38:31.428Z,5
2023-12-18T17:40:32.374Z,5
2023-12-18T17:42:34.181Z,5
2023-12-18T17:44:34.495Z,5
2023-12-18T17:46:35.338Z,5
2023-12-18T17:48:36.553Z,5
2023-12-18T17:50:37.301Z,5
2023-12-18T17:52:38.395Z,5
2023-12-18T17:54:39.487Z,5
2023-12-18T17:56:40.358Z,5
2023-12-18T17:58:41.316Z,5
2023-12-18T18:00:42.564Z,5
2023-12-18T18:02:43.539Z,5
2023-12-18T18:04:44.663Z,5
2023-12-18T18:06:45.545Z,5
2023-12-18T18:08:46.315Z,5
2023-12-18T18:10:47.403Z,5
2023-12-18T18:12:48.403Z,5
2023-12-18T18:14:49.405Z,5
2023-12-18T18:16:50.339Z,5
2023-12-18T18:18:51.668Z,5
2023-12-18T18:20:52.355Z,5
2023-12-18T18:22:53.388Z,5
2023-12-18T18:24:54.744Z,5
2023-12-18T18:27:10.840Z,5
2023-12-18T18:28:56.308Z,5
2023-12-18T18:30:57.755Z,5
2023-12-18T18:32:58.759Z,5
2023-12-18T18:34:59.462Z,5
2023-12-18T18:37:00.514Z,5
2023-12-18T18:39:01.613Z,5
2023-12-18T18:41:02.345Z,5
2023-12-18T18:43:03.398Z,5
2023-12-18T18:45:04.381Z,5
2023-12-18T18:47:05.574Z,6
2023-12-18T18:49:06.536Z,6
2023-12-18T18:51:07.409Z,6
2023-12-18T18:53:08.297Z,6
2023-12-18T18:55:09.369Z,6
2023-12-18T18:57:10.317Z,5
2023-12-18T18:59:11.408Z,5
2023-12-18T19:01:12.724Z,5
2023-12-18T19:03:17.798Z,5
2023-12-18T19:05:14.550Z,5
2023-12-18T19:07:15.352Z,5
2023-12-18T19:09:16.502Z,5
2023-12-18T19:11:17.360Z,5
2023-12-18T19:13:19.953Z,5
2023-12-18T19:15:19.545Z,5
2023-12-18T19:17:20.708Z,5
2023-12-18T19:19:22.251Z,4
2023-12-18T19:21:22.465Z,4
2023-12-18T19:23:23.466Z,4
2023-12-18T19:25:24.415Z,4
2023-12-18T19:27:25.509Z,4
2023-12-18T19:29:26.712Z,4
2023-12-18T19:31:27.502Z,4
2023-12-18T19:33:28.517Z,4
2023-12-18T19:35:29.434Z,4
2023-12-18T19:37:30.413Z,4
2023-12-18T19:39:31.540Z,4
2023-12-18T19:41:32.440Z,4
2023-12-18T19:43:33.310Z,4
2023-12-18T19:45:34.506Z,4
2023-12-18T19:47:35.431Z,4
2023-12-18T19:49:36.562Z,5
2023-12-18T19:51:37.390Z,5
2023-12-18T19:53:38.350Z,5
2023-12-18T19:55:39.373Z,5
2023-12-18T19:57:40.547Z,5
2023-12-18T19:59:41.334Z,5
2023-12-18T20:01:42.607Z,5
2023-12-18T20:03:43.500Z,5
2023-12-18T20:05:44.343Z,5
2023-12-18T20:07:45.553Z,5
2023-12-18T20:09:46.500Z,5
2023-12-18T20:11:47.443Z,5
2023-12-18T20:13:48.314Z,5
2023-12-18T20:15:49.722Z,5
2023-12-18T20:17:50.519Z,5
2023-12-18T20:19:51.435Z,4
2023-12-18T20:21:52.433Z,4
2023-12-18T20:23:53.494Z,4
2023-12-18T20:25:54.441Z,4
2023-12-18T20:27:55.493Z,4
2023-12-18T20:29:56.554Z,3
2023-12-18T20:31:57.516Z,3
2023-12-18T20:33:58.655Z,3
2023-12-18T20:35:59.752Z,3
2023-12-18T20:38:00.336Z,3
2023-12-18T20:40:01.556Z,3
2023-12-18T20:42:02.336Z,2
2023-12-18T20:44:03.398Z,2
2023-12-18T20:46:04.574Z,2
2023-12-18T20:48:05.555Z,2
2023-12-18T20:50:06.737Z,2
2023-12-18T20:52:07.361Z,2
2023-12-18T20:54:08.372Z,2
2023-12-18T20:56:14.581Z,3
2023-12-18T20:58:10.361Z,3
2023-12-18T21:00:25.797Z,3
2023-12-18T21:02:12.339Z,3
2023-12-18T21:04:13.699Z,3
2023-12-18T21:06:14.432Z,3
2023-12-18T21:08:15.324Z,3
2023-12-18T21:10:16.353Z,3
2023-12-18T21:12:17.536Z,3
2023-12-18T21:14:33.227Z,3
2023-12-18T21:16:19.370Z,3
2023-12-18T21:18:20.369Z,3
2023-12-18T21:20:21.370Z,3
2023-12-18T21:22:22.506Z,3
2023-12-18T21:24:23.470Z,3
2023-12-18T21:26:24.356Z,3
2023-12-18T21:30:27.795Z,3
2023-12-18T21:32:27.573Z,3
2023-12-18T21:34:28.933Z,4
2023-12-18T21:36:29.346Z,4
2023-12-18T21:38:30.332Z,4
2023-12-18T21:40:31.314Z,4
2023-12-18T21:42:32.585Z,4
2023-12-18T21:44:33.412Z,4
2023-12-18T21:46:35.150Z,4
2023-12-18T21:48:35.679Z,4
2023-12-18T21:50:36.832Z,4
2023-12-18T21:52:37.507Z,4
2023-12-18T21:54:38.599Z,4
2023-12-18T21:56:39.344Z,4
2023-12-18T21:58:40.367Z,4
2023-12-18T22:00:41.699Z,5
2023-12-18T22:02:42.985Z,5
2023-12-18T22:04:43.523Z,5
2023-12-18T22:06:44.444Z,5
2023-12-18T22:08:45.322Z,5
2023-12-18T22:10:46.310Z,5
2023-12-18T22:12:48.276Z,5
2023-12-18T22:14:48.382Z,5
2023-12-18T22:16:49.406Z,5
2023-12-18T22:18:50.535Z,5
2023-12-18T22:21:01.222Z,5
2023-12-18T22:22:52.359Z,5
2023-12-18T22:24:53.506Z,5
2023-12-18T22:26:54.521Z,4
2023-12-18T22:28:55.376Z,4
2023-12-18T22:30:56.783Z,4
2023-12-18T22:32:57.419Z,4
2023-12-18T22:34:58.797Z,4
2023-12-18T22:36:59.551Z,4
2023-12-18T22:39:11.351Z,4
2023-12-18T22:41:01.385Z,4
2023-12-18T22:43:02.458Z,4
2023-12-18T22:45:03.473Z,4
2023-12-18T22:47:04.349Z,4
2023-12-18T22:49:05.577Z,4
2023-12-18T22:51:07.742Z,4
2023-12-18T22:53:07.336Z,4
2023-12-18T22:55:08.449Z,4
2023-12-18T22:57:09.293Z,4
2023-12-18T22:59:10.461Z,5
2023-12-18T23:01:11.763Z,5
2023-12-18T23:03:12.442Z,5
2023-12-18T23:05:13.662Z,5
2023-12-18T23:07:14.369Z,5
2023-12-18T23:09:15.294Z,5
2023-12-18T23:11:16.411Z,5
2023-12-18T23:13:17.450Z,5
2023-12-18T23:15:18.401Z,5
2023-12-18T23:17:19.375Z,5
2023-12-18T23:19:20.532Z,5
2023-12-18T23:21:21.501Z,5
2023-12-18T23:23:22.806Z,5
2023-12-18T23:25:23.469Z,5
2023-12-18T23:27:24.477Z,5
2023-12-18T23:29:25.438Z,5
2023-12-18T23:31:26.502Z,5
2023-12-18T23:33:32.229Z,5
2023-12-18T23:35:28.377Z,5
2023-12-18T23:37:30.362Z,5
2023-12-18T23:39:30.483Z,5
2023-12-18T23:41:31.388Z,5
2023-12-18T23:43:32.530Z,5
2023-12-18T23:45:33.433Z,5
2023-12-18T23:47:34.531Z,6
2023-12-18T23:49:35.505Z,6
2023-12-18T23:51:36.349Z,6
2023-12-18T23:53:37.352Z,6
2023-12-18T23:55:38.436Z,6
2023-12-18T23:57:39.574Z,6
2023-12-18T23:59:40.355Z,6
